sensor_id;sensor_type;location;lat;lon;timestamp;P1;durP1;ratioP1;P2;durP2;ratioP2
71622;SDS011;59473;53.214;5.728;2024-01-25T00:02:24;50.17;;;10.20;;
71622;SDS011;59473;53.214;5.728;2024-01-25T00:04:49;46.80;;;10.03;;
71622;SDS011;59473;53.214;5.728;2024-01-25T00:07:15;37.17;;;9.50;;
71622;SDS011;59473;53.214;5.728;2024-01-25T00:09:40;47.57;;;11.40;;
71622;SDS011;59473;53.214;5.728;2024-01-25T00:12:05;47.33;;;10.27;;
71622;SDS011;59473;53.214;5.728;2024-01-25T00:14:31;44.03;;;8.63;;
71622;SDS011;59473;53.214;5.728;2024-01-25T00:16:56;42.20;;;7.30;;
71622;SDS011;59473;53.214;5.728;2024-01-25T00:19:21;46.57;;;9.63;;
71622;SDS011;59473;53.214;5.728;2024-01-25T00:21:46;40.63;;;8.73;;
71622;SDS011;59473;53.214;5.728;2024-01-25T00:24:12;44.23;;;8.90;;
71622;SDS011;59473;53.214;5.728;2024-01-25T00:26:37;45.57;;;9.37;;
71622;SDS011;59473;53.214;5.728;2024-01-25T00:29:02;46.80;;;9.73;;
71622;SDS011;59473;53.214;5.728;2024-01-25T00:31:28;50.22;;;9.57;;
71622;SDS011;59473;53.214;5.728;2024-01-25T00:33:53;43.88;;;9.45;;
71622;SDS011;59473;53.214;5.728;2024-01-25T00:36:18;46.80;;;8.83;;
71622;SDS011;59473;53.214;5.728;2024-01-25T00:38:44;43.93;;;9.60;;
71622;SDS011;59473;53.214;5.728;2024-01-25T00:41:09;51.23;;;9.20;;
71622;SDS011;59473;53.214;5.728;2024-01-25T00:43:35;44.97;;;10.18;;
71622;SDS011;59473;53.214;5.728;2024-01-25T00:46:00;42.77;;;8.37;;
71622;SDS011;59473;53.214;5.728;2024-01-25T00:48:26;48.70;;;9.23;;
71622;SDS011;59473;53.214;5.728;2024-01-25T00:50:51;49.80;;;9.67;;
71622;SDS011;59473;53.214;5.728;2024-01-25T00:53:17;53.75;;;9.38;;
71622;SDS011;59473;53.214;5.728;2024-01-25T00:55:43;51.00;;;10.23;;
71622;SDS011;59473;53.214;5.728;2024-01-25T00:58:08;51.03;;;9.37;;
71622;SDS011;59473;53.214;5.728;2024-01-25T01:00:33;58.10;;;9.63;;
71622;SDS011;59473;53.214;5.728;2024-01-25T01:02:59;56.03;;;8.90;;
71622;SDS011;59473;53.214;5.728;2024-01-25T01:05:26;58.30;;;10.32;;
71622;SDS011;59473;53.214;5.728;2024-01-25T01:07:51;54.30;;;8.93;;
71622;SDS011;59473;53.214;5.728;2024-01-25T01:10:17;47.85;;;10.43;;
71622;SDS011;59473;53.214;5.728;2024-01-25T01:12:42;50.43;;;7.47;;
71622;SDS011;59473;53.214;5.728;2024-01-25T01:15:07;46.10;;;9.27;;
71622;SDS011;59473;53.214;5.728;2024-01-25T01:17:33;38.03;;;8.17;;
71622;SDS011;59473;53.214;5.728;2024-01-25T01:19:58;55.43;;;10.07;;
71622;SDS011;59473;53.214;5.728;2024-01-25T01:22:23;51.50;;;10.17;;
71622;SDS011;59473;53.214;5.728;2024-01-25T01:24:48;52.63;;;9.87;;
71622;SDS011;59473;53.214;5.728;2024-01-25T01:27:14;45.10;;;9.80;;
71622;SDS011;59473;53.214;5.728;2024-01-25T01:29:39;49.40;;;9.77;;
71622;SDS011;59473;53.214;5.728;2024-01-25T01:32:04;62.27;;;10.97;;
71622;SDS011;59473;53.214;5.728;2024-01-25T01:34:30;52.90;;;8.73;;
71622;SDS011;59473;53.214;5.728;2024-01-25T01:36:55;51.37;;;10.40;;
71622;SDS011;59473;53.214;5.728;2024-01-25T01:39:20;55.00;;;10.83;;
71622;SDS011;59473;53.214;5.728;2024-01-25T01:41:48;50.03;;;9.93;;
71622;SDS011;59473;53.214;5.728;2024-01-25T01:44:14;49.15;;;8.98;;
71622;SDS011;59473;53.214;5.728;2024-01-25T01:46:39;45.87;;;9.77;;
71622;SDS011;59473;53.214;5.728;2024-01-25T01:49:05;50.97;;;9.53;;
71622;SDS011;59473;53.214;5.728;2024-01-25T01:51:31;48.35;;;9.15;;
71622;SDS011;59473;53.214;5.728;2024-01-25T01:53:57;48.80;;;9.07;;
71622;SDS011;59473;53.214;5.728;2024-01-25T01:56:23;51.87;;;10.60;;
71622;SDS011;59473;53.214;5.728;2024-01-25T01:58:49;33.53;;;6.70;;
71622;SDS011;59473;53.214;5.728;2024-01-25T02:01:14;44.83;;;9.50;;
71622;SDS011;59473;53.214;5.728;2024-01-25T02:03:39;47.00;;;9.20;;
71622;SDS011;59473;53.214;5.728;2024-01-25T02:06:05;40.90;;;7.80;;
71622;SDS011;59473;53.214;5.728;2024-01-25T02:08:31;48.92;;;10.05;;
71622;SDS011;59473;53.214;5.728;2024-01-25T02:10:56;45.97;;;8.30;;
71622;SDS011;59473;53.214;5.728;2024-01-25T02:13:22;42.10;;;7.57;;
71622;SDS011;59473;53.214;5.728;2024-01-25T02:15:47;56.33;;;8.60;;
71622;SDS011;59473;53.214;5.728;2024-01-25T02:18:12;29.57;;;6.43;;
71622;SDS011;59473;53.214;5.728;2024-01-25T02:20:37;46.00;;;8.60;;
71622;SDS011;59473;53.214;5.728;2024-01-25T02:23:03;54.20;;;8.00;;
71622;SDS011;59473;53.214;5.728;2024-01-25T02:25:28;44.47;;;7.53;;
71622;SDS011;59473;53.214;5.728;2024-01-25T02:27:53;41.73;;;9.33;;
71622;SDS011;59473;53.214;5.728;2024-01-25T02:30:18;58.90;;;8.00;;
71622;SDS011;59473;53.214;5.728;2024-01-25T02:32:44;50.57;;;7.33;;
71622;SDS011;59473;53.214;5.728;2024-01-25T02:35:09;57.53;;;8.40;;
71622;SDS011;59473;53.214;5.728;2024-01-25T02:37:34;53.60;;;8.90;;
71622;SDS011;59473;53.214;5.728;2024-01-25T02:39:59;57.07;;;9.73;;
71622;SDS011;59473;53.214;5.728;2024-01-25T02:42:25;49.60;;;7.47;;
71622;SDS011;59473;53.214;5.728;2024-01-25T02:44:50;56.37;;;9.27;;
71622;SDS011;59473;53.214;5.728;2024-01-25T02:47:15;46.63;;;7.77;;
71622;SDS011;59473;53.214;5.728;2024-01-25T02:49:41;44.23;;;7.17;;
71622;SDS011;59473;53.214;5.728;2024-01-25T02:52:06;52.07;;;8.97;;
71622;SDS011;59473;53.214;5.728;2024-01-25T02:54:34;45.57;;;9.00;;
71622;SDS011;59473;53.214;5.728;2024-01-25T02:56:59;53.85;;;8.32;;
71622;SDS011;59473;53.214;5.728;2024-01-25T02:59:24;40.47;;;7.90;;
71622;SDS011;59473;53.214;5.728;2024-01-25T03:01:50;47.47;;;8.00;;
71622;SDS011;59473;53.214;5.728;2024-01-25T03:04:15;34.97;;;7.30;;
71622;SDS011;59473;53.214;5.728;2024-01-25T03:06:41;51.60;;;7.78;;
71622;SDS011;59473;53.214;5.728;2024-01-25T03:09:06;43.53;;;7.97;;
71622;SDS011;59473;53.214;5.728;2024-01-25T03:11:31;26.13;;;5.47;;
71622;SDS011;59473;53.214;5.728;2024-01-25T03:13:57;41.83;;;6.83;;
71622;SDS011;59473;53.214;5.728;2024-01-25T03:16:22;53.33;;;8.77;;
71622;SDS011;59473;53.214;5.728;2024-01-25T03:18:47;47.90;;;8.87;;
71622;SDS011;59473;53.214;5.728;2024-01-25T03:21:13;40.23;;;8.70;;
71622;SDS011;59473;53.214;5.728;2024-01-25T03:23:38;57.47;;;9.27;;
71622;SDS011;59473;53.214;5.728;2024-01-25T03:26:04;45.80;;;8.18;;
71622;SDS011;59473;53.214;5.728;2024-01-25T03:28:29;47.13;;;8.55;;
71622;SDS011;59473;53.214;5.728;2024-01-25T03:30:54;50.93;;;10.93;;
71622;SDS011;59473;53.214;5.728;2024-01-25T03:33:19;41.83;;;8.57;;
71622;SDS011;59473;53.214;5.728;2024-01-25T03:35:44;47.58;;;9.68;;
71622;SDS011;59473;53.214;5.728;2024-01-25T03:38:10;50.72;;;8.77;;
71622;SDS011;59473;53.214;5.728;2024-01-25T03:40:35;52.10;;;8.50;;
71622;SDS011;59473;53.214;5.728;2024-01-25T03:43:00;55.97;;;9.93;;
71622;SDS011;59473;53.214;5.728;2024-01-25T03:45:25;46.90;;;7.77;;
71622;SDS011;59473;53.214;5.728;2024-01-25T03:47:51;59.43;;;8.60;;
71622;SDS011;59473;53.214;5.728;2024-01-25T03:50:16;51.10;;;8.87;;
71622;SDS011;59473;53.214;5.728;2024-01-25T03:52:41;55.83;;;8.67;;
71622;SDS011;59473;53.214;5.728;2024-01-25T03:55:06;61.87;;;9.57;;
71622;SDS011;59473;53.214;5.728;2024-01-25T03:57:32;52.30;;;9.13;;
71622;SDS011;59473;53.214;5.728;2024-01-25T03:59:57;63.20;;;8.57;;
71622;SDS011;59473;53.214;5.728;2024-01-25T04:02:22;57.17;;;9.30;;
71622;SDS011;59473;53.214;5.728;2024-01-25T04:04:48;51.77;;;8.27;;
71622;SDS011;59473;53.214;5.728;2024-01-25T04:07:13;47.43;;;8.43;;
71622;SDS011;59473;53.214;5.728;2024-01-25T04:09:38;50.33;;;6.97;;
71622;SDS011;59473;53.214;5.728;2024-01-25T04:12:05;52.00;;;8.10;;
71622;SDS011;59473;53.214;5.728;2024-01-25T04:14:30;57.00;;;10.13;;
71622;SDS011;59473;53.214;5.728;2024-01-25T04:16:55;59.07;;;8.90;;
71622;SDS011;59473;53.214;5.728;2024-01-25T04:19:20;60.10;;;9.97;;
71622;SDS011;59473;53.214;5.728;2024-01-25T04:21:46;67.10;;;9.33;;
71622;SDS011;59473;53.214;5.728;2024-01-25T04:24:11;68.43;;;7.90;;
71622;SDS011;59473;53.214;5.728;2024-01-25T04:26:36;59.17;;;9.80;;
71622;SDS011;59473;53.214;5.728;2024-01-25T04:29:01;56.10;;;8.13;;
71622;SDS011;59473;53.214;5.728;2024-01-25T04:31:27;55.30;;;8.87;;
71622;SDS011;59473;53.214;5.728;2024-01-25T04:33:52;44.67;;;8.80;;
71622;SDS011;59473;53.214;5.728;2024-01-25T04:36:17;60.47;;;10.57;;
71622;SDS011;59473;53.214;5.728;2024-01-25T04:38:42;55.30;;;9.23;;
71622;SDS011;59473;53.214;5.728;2024-01-25T04:41:07;70.23;;;9.17;;
71622;SDS011;59473;53.214;5.728;2024-01-25T04:43:36;56.43;;;8.93;;
71622;SDS011;59473;53.214;5.728;2024-01-25T04:46:01;57.60;;;9.60;;
71622;SDS011;59473;53.214;5.728;2024-01-25T04:48:27;57.67;;;9.57;;
71622;SDS011;59473;53.214;5.728;2024-01-25T04:50:53;56.23;;;9.00;;
71622;SDS011;59473;53.214;5.728;2024-01-25T04:53:18;48.27;;;8.50;;
71622;SDS011;59473;53.214;5.728;2024-01-25T04:55:43;49.27;;;7.63;;
71622;SDS011;59473;53.214;5.728;2024-01-25T04:58:08;52.90;;;8.47;;
71622;SDS011;59473;53.214;5.728;2024-01-25T05:00:34;55.50;;;8.77;;
71622;SDS011;59473;53.214;5.728;2024-01-25T05:03:00;53.65;;;8.88;;
71622;SDS011;59473;53.214;5.728;2024-01-25T05:05:25;46.17;;;7.80;;
71622;SDS011;59473;53.214;5.728;2024-01-25T05:07:50;56.33;;;9.93;;
71622;SDS011;59473;53.214;5.728;2024-01-25T05:10:16;53.47;;;9.03;;
71622;SDS011;59473;53.214;5.728;2024-01-25T05:12:41;64.90;;;8.23;;
71622;SDS011;59473;53.214;5.728;2024-01-25T05:15:06;52.83;;;7.70;;
71622;SDS011;59473;53.214;5.728;2024-01-25T05:17:33;60.80;;;8.40;;
71622;SDS011;59473;53.214;5.728;2024-01-25T05:19:58;58.78;;;7.65;;
71622;SDS011;59473;53.214;5.728;2024-01-25T05:22:23;45.83;;;8.63;;
71622;SDS011;59473;53.214;5.728;2024-01-25T05:24:48;56.03;;;8.40;;
71622;SDS011;59473;53.214;5.728;2024-01-25T05:27:14;45.70;;;8.00;;
71622;SDS011;59473;53.214;5.728;2024-01-25T05:29:39;53.87;;;9.43;;
71622;SDS011;59473;53.214;5.728;2024-01-25T05:32:04;70.00;;;10.50;;
71622;SDS011;59473;53.214;5.728;2024-01-25T05:34:29;55.60;;;9.03;;
71622;SDS011;59473;53.214;5.728;2024-01-25T05:36:55;71.93;;;8.73;;
71622;SDS011;59473;53.214;5.728;2024-01-25T05:39:20;68.53;;;9.73;;
71622;SDS011;59473;53.214;5.728;2024-01-25T05:41:45;49.23;;;8.63;;
71622;SDS011;59473;53.214;5.728;2024-01-25T05:44:11;53.70;;;8.00;;
71622;SDS011;59473;53.214;5.728;2024-01-25T05:46:36;53.05;;;8.00;;
71622;SDS011;59473;53.214;5.728;2024-01-25T05:49:01;53.93;;;8.93;;
71622;SDS011;59473;53.214;5.728;2024-01-25T05:51:27;43.73;;;7.90;;
71622;SDS011;59473;53.214;5.728;2024-01-25T05:53:52;54.00;;;8.00;;
71622;SDS011;59473;53.214;5.728;2024-01-25T05:56:17;60.80;;;9.63;;
71622;SDS011;59473;53.214;5.728;2024-01-25T05:58:43;46.20;;;7.73;;
71622;SDS011;59473;53.214;5.728;2024-01-25T06:01:08;48.10;;;6.93;;
71622;SDS011;59473;53.214;5.728;2024-01-25T06:03:33;35.47;;;6.80;;
71622;SDS011;59473;53.214;5.728;2024-01-25T06:05:58;47.87;;;6.80;;
71622;SDS011;59473;53.214;5.728;2024-01-25T06:08:24;51.40;;;6.93;;
71622;SDS011;59473;53.214;5.728;2024-01-25T06:10:49;36.97;;;6.83;;
71622;SDS011;59473;53.214;5.728;2024-01-25T06:13:15;50.70;;;8.13;;
71622;SDS011;59473;53.214;5.728;2024-01-25T06:15:40;36.83;;;7.03;;
71622;SDS011;59473;53.214;5.728;2024-01-25T06:18:05;45.97;;;7.03;;
71622;SDS011;59473;53.214;5.728;2024-01-25T06:20:30;43.67;;;6.07;;
71622;SDS011;59473;53.214;5.728;2024-01-25T06:22:56;32.13;;;6.75;;
71622;SDS011;59473;53.214;5.728;2024-01-25T06:25:21;28.77;;;6.97;;
71622;SDS011;59473;53.214;5.728;2024-01-25T06:27:47;32.22;;;7.13;;
71622;SDS011;59473;53.214;5.728;2024-01-25T06:30:13;32.70;;;6.30;;
71622;SDS011;59473;53.214;5.728;2024-01-25T06:32:38;44.73;;;7.33;;
71622;SDS011;59473;53.214;5.728;2024-01-25T06:35:04;41.67;;;7.20;;
71622;SDS011;59473;53.214;5.728;2024-01-25T06:37:29;30.93;;;6.93;;
71622;SDS011;59473;53.214;5.728;2024-01-25T06:39:55;40.42;;;6.85;;
71622;SDS011;59473;53.214;5.728;2024-01-25T06:42:20;29.23;;;6.20;;
71622;SDS011;59473;53.214;5.728;2024-01-25T06:44:45;36.30;;;7.70;;
71622;SDS011;59473;53.214;5.728;2024-01-25T06:47:10;29.73;;;7.27;;
71622;SDS011;59473;53.214;5.728;2024-01-25T06:49:36;32.70;;;6.27;;
71622;SDS011;59473;53.214;5.728;2024-01-25T06:52:01;27.07;;;6.20;;
71622;SDS011;59473;53.214;5.728;2024-01-25T06:54:26;39.43;;;7.47;;
71622;SDS011;59473;53.214;5.728;2024-01-25T06:56:51;35.77;;;5.87;;
71622;SDS011;59473;53.214;5.728;2024-01-25T06:59:17;31.57;;;6.07;;
71622;SDS011;59473;53.214;5.728;2024-01-25T07:01:42;40.23;;;6.67;;
71622;SDS011;59473;53.214;5.728;2024-01-25T07:04:07;27.53;;;5.83;;
71622;SDS011;59473;53.214;5.728;2024-01-25T07:06:32;31.57;;;6.00;;
71622;SDS011;59473;53.214;5.728;2024-01-25T07:08:58;24.40;;;5.60;;
71622;SDS011;59473;53.214;5.728;2024-01-25T07:11:23;36.23;;;6.57;;
71622;SDS011;59473;53.214;5.728;2024-01-25T07:13:49;32.40;;;6.25;;
71622;SDS011;59473;53.214;5.728;2024-01-25T07:16:15;34.43;;;7.00;;
71622;SDS011;59473;53.214;5.728;2024-01-25T07:18:40;33.10;;;7.37;;
71622;SDS011;59473;53.214;5.728;2024-01-25T07:21:05;17.97;;;5.70;;
71622;SDS011;59473;53.214;5.728;2024-01-25T07:23:30;26.80;;;7.30;;
71622;SDS011;59473;53.214;5.728;2024-01-25T07:25:55;30.90;;;8.50;;
71622;SDS011;59473;53.214;5.728;2024-01-25T07:28:21;35.17;;;7.07;;
71622;SDS011;59473;53.214;5.728;2024-01-25T07:30:49;38.40;;;7.63;;
71622;SDS011;59473;53.214;5.728;2024-01-25T07:33:15;35.15;;;6.47;;
71622;SDS011;59473;53.214;5.728;2024-01-25T07:35:40;34.33;;;6.37;;
71622;SDS011;59473;53.214;5.728;2024-01-25T07:38:10;46.63;;;7.03;;
71622;SDS011;59473;53.214;5.728;2024-01-25T07:40:36;36.07;;;6.83;;
71622;SDS011;59473;53.214;5.728;2024-01-25T07:43:01;34.87;;;7.27;;
71622;SDS011;59473;53.214;5.728;2024-01-25T07:45:26;45.80;;;7.07;;
71622;SDS011;59473;53.214;5.728;2024-01-25T07:47:51;32.53;;;7.10;;
71622;SDS011;59473;53.214;5.728;2024-01-25T07:50:16;33.73;;;7.17;;
71622;SDS011;59473;53.214;5.728;2024-01-25T07:52:42;39.28;;;7.93;;
71622;SDS011;59473;53.214;5.728;2024-01-25T07:55:07;40.67;;;7.63;;
71622;SDS011;59473;53.214;5.728;2024-01-25T07:57:32;33.92;;;7.25;;
71622;SDS011;59473;53.214;5.728;2024-01-25T07:59:58;41.60;;;8.53;;
71622;SDS011;59473;53.214;5.728;2024-01-25T08:02:23;46.93;;;7.70;;
71622;SDS011;59473;53.214;5.728;2024-01-25T08:04:48;34.57;;;8.17;;
71622;SDS011;59473;53.214;5.728;2024-01-25T08:07:13;53.83;;;15.53;;
71622;SDS011;59473;53.214;5.728;2024-01-25T08:09:39;66.63;;;16.17;;
71622;SDS011;59473;53.214;5.728;2024-01-25T08:12:04;86.40;;;20.47;;
71622;SDS011;59473;53.214;5.728;2024-01-25T08:14:29;87.70;;;23.00;;
71622;SDS011;59473;53.214;5.728;2024-01-25T08:16:54;76.13;;;22.20;;
71622;SDS011;59473;53.214;5.728;2024-01-25T08:19:20;68.28;;;18.88;;
71622;SDS011;59473;53.214;5.728;2024-01-25T08:21:46;74.00;;;23.47;;
71622;SDS011;59473;53.214;5.728;2024-01-25T08:24:11;50.17;;;19.07;;
71622;SDS011;59473;53.214;5.728;2024-01-25T08:26:36;55.70;;;14.30;;
71622;SDS011;59473;53.214;5.728;2024-01-25T08:29:02;39.57;;;14.10;;
71622;SDS011;59473;53.214;5.728;2024-01-25T08:31:27;63.03;;;22.67;;
71622;SDS011;59473;53.214;5.728;2024-01-25T08:33:52;42.67;;;15.63;;
71622;SDS011;59473;53.214;5.728;2024-01-25T08:36:17;40.10;;;11.63;;
71622;SDS011;59473;53.214;5.728;2024-01-25T08:38:43;47.03;;;15.15;;
71622;SDS011;59473;53.214;5.728;2024-01-25T08:41:09;36.00;;;8.93;;
71622;SDS011;59473;53.214;5.728;2024-01-25T08:43:36;38.28;;;9.55;;
71622;SDS011;59473;53.214;5.728;2024-01-25T08:46:01;48.23;;;10.20;;
71622;SDS011;59473;53.214;5.728;2024-01-25T08:48:27;24.57;;;8.40;;
71622;SDS011;59473;53.214;5.728;2024-01-25T08:50:52;38.17;;;9.13;;
71622;SDS011;59473;53.214;5.728;2024-01-25T08:53:19;41.72;;;7.88;;
71622;SDS011;59473;53.214;5.728;2024-01-25T08:55:47;30.60;;;7.00;;
71622;SDS011;59473;53.214;5.728;2024-01-25T08:58:12;46.90;;;7.57;;
71622;SDS011;59473;53.214;5.728;2024-01-25T09:00:37;32.17;;;6.77;;
71622;SDS011;59473;53.214;5.728;2024-01-25T09:03:03;30.70;;;7.20;;
71622;SDS011;59473;53.214;5.728;2024-01-25T09:05:28;37.33;;;8.47;;
71622;SDS011;59473;53.214;5.728;2024-01-25T09:07:53;29.80;;;6.87;;
71622;SDS011;59473;53.214;5.728;2024-01-25T09:10:19;37.22;;;7.40;;
71622;SDS011;59473;53.214;5.728;2024-01-25T09:12:44;40.27;;;8.00;;
71622;SDS011;59473;53.214;5.728;2024-01-25T09:15:10;30.33;;;5.90;;
71622;SDS011;59473;53.214;5.728;2024-01-25T09:17:36;32.13;;;6.13;;
71622;SDS011;59473;53.214;5.728;2024-01-25T09:20:01;26.05;;;5.93;;
71622;SDS011;59473;53.214;5.728;2024-01-25T09:22:28;36.60;;;6.22;;
71622;SDS011;59473;53.214;5.728;2024-01-25T09:24:53;26.97;;;5.90;;
71622;SDS011;59473;53.214;5.728;2024-01-25T09:27:18;31.53;;;7.20;;
71622;SDS011;59473;53.214;5.728;2024-01-25T09:29:43;32.00;;;6.77;;
71622;SDS011;59473;53.214;5.728;2024-01-25T09:32:09;37.27;;;7.00;;
71622;SDS011;59473;53.214;5.728;2024-01-25T09:34:37;37.33;;;7.77;;
71622;SDS011;59473;53.214;5.728;2024-01-25T09:37:03;42.63;;;8.50;;
71622;SDS011;59473;53.214;5.728;2024-01-25T09:39:28;36.57;;;8.40;;
71622;SDS011;59473;53.214;5.728;2024-01-25T09:41:54;33.58;;;7.45;;
71622;SDS011;59473;53.214;5.728;2024-01-25T09:44:19;31.73;;;7.37;;
71622;SDS011;59473;53.214;5.728;2024-01-25T09:46:44;33.53;;;6.93;;
71622;SDS011;59473;53.214;5.728;2024-01-25T09:49:10;369.25;;;20.02;;
71622;SDS011;59473;53.214;5.728;2024-01-25T09:51:37;40.45;;;6.75;;
71622;SDS011;59473;53.214;5.728;2024-01-25T09:54:03;38.50;;;8.05;;
71622;SDS011;59473;53.214;5.728;2024-01-25T09:56:29;32.88;;;7.35;;
71622;SDS011;59473;53.214;5.728;2024-01-25T09:58:56;38.90;;;7.20;;
71622;SDS011;59473;53.214;5.728;2024-01-25T10:01:22;40.28;;;8.30;;
71622;SDS011;59473;53.214;5.728;2024-01-25T10:03:47;33.77;;;7.30;;
71622;SDS011;59473;53.214;5.728;2024-01-25T10:06:13;44.33;;;11.40;;
71622;SDS011;59473;53.214;5.728;2024-01-25T10:08:38;42.42;;;9.38;;
71622;SDS011;59473;53.214;5.728;2024-01-25T10:11:04;53.25;;;10.55;;
71622;SDS011;59473;53.214;5.728;2024-01-25T10:13:29;38.93;;;9.20;;
71622;SDS011;59473;53.214;5.728;2024-01-25T10:15:55;35.27;;;7.90;;
71622;SDS011;59473;53.214;5.728;2024-01-25T10:18:22;34.42;;;7.68;;
71622;SDS011;59473;53.214;5.728;2024-01-25T10:20:47;43.42;;;6.53;;
71622;SDS011;59473;53.214;5.728;2024-01-25T10:23:12;33.30;;;8.23;;
71622;SDS011;59473;53.214;5.728;2024-01-25T10:25:37;40.93;;;8.17;;
71622;SDS011;59473;53.214;5.728;2024-01-25T10:28:06;36.80;;;9.00;;
71622;SDS011;59473;53.214;5.728;2024-01-25T10:30:32;35.92;;;6.70;;
71622;SDS011;59473;53.214;5.728;2024-01-25T10:33:01;35.63;;;6.57;;
71622;SDS011;59473;53.214;5.728;2024-01-25T10:35:26;32.50;;;6.27;;
71622;SDS011;59473;53.214;5.728;2024-01-25T10:37:52;33.83;;;6.60;;
71622;SDS011;59473;53.214;5.728;2024-01-25T10:40:18;42.60;;;7.60;;
71622;SDS011;59473;53.214;5.728;2024-01-25T10:42:44;49.60;;;6.77;;
71622;SDS011;59473;53.214;5.728;2024-01-25T10:45:09;36.10;;;6.30;;
71622;SDS011;59473;53.214;5.728;2024-01-25T10:47:35;37.97;;;8.63;;
71622;SDS011;59473;53.214;5.728;2024-01-25T10:50:01;35.03;;;6.20;;
71622;SDS011;59473;53.214;5.728;2024-01-25T10:52:27;35.90;;;6.50;;
71622;SDS011;59473;53.214;5.728;2024-01-25T10:54:53;34.50;;;5.83;;
71622;SDS011;59473;53.214;5.728;2024-01-25T10:57:18;33.13;;;7.63;;
71622;SDS011;59473;53.214;5.728;2024-01-25T10:59:43;38.97;;;6.97;;
71622;SDS011;59473;53.214;5.728;2024-01-25T11:02:09;28.13;;;6.40;;
71622;SDS011;59473;53.214;5.728;2024-01-25T11:04:34;48.87;;;8.83;;
71622;SDS011;59473;53.214;5.728;2024-01-25T11:07:08;30.60;;;6.37;;
71622;SDS011;59473;53.214;5.728;2024-01-25T11:09:34;44.40;;;7.68;;
71622;SDS011;59473;53.214;5.728;2024-01-25T11:12:00;32.67;;;6.40;;
71622;SDS011;59473;53.214;5.728;2024-01-25T11:14:25;39.60;;;5.47;;
71622;SDS011;59473;53.214;5.728;2024-01-25T11:16:51;31.20;;;5.63;;
71622;SDS011;59473;53.214;5.728;2024-01-25T11:19:17;35.53;;;6.57;;
71622;SDS011;59473;53.214;5.728;2024-01-25T11:21:46;33.40;;;5.45;;
71622;SDS011;59473;53.214;5.728;2024-01-25T11:24:29;34.95;;;6.60;;
71622;SDS011;59473;53.214;5.728;2024-01-25T11:27:00;38.85;;;6.95;;
71622;SDS011;59473;53.214;5.728;2024-01-25T11:29:25;33.80;;;5.97;;
71622;SDS011;59473;53.214;5.728;2024-01-25T11:31:52;36.63;;;6.30;;
71622;SDS011;59473;53.214;5.728;2024-01-25T11:34:18;39.00;;;7.80;;
71622;SDS011;59473;53.214;5.728;2024-01-25T11:36:43;31.20;;;6.20;;
71622;SDS011;59473;53.214;5.728;2024-01-25T11:39:09;32.90;;;6.40;;
71622;SDS011;59473;53.214;5.728;2024-01-25T11:41:34;41.05;;;6.70;;
71622;SDS011;59473;53.214;5.728;2024-01-25T11:44:00;43.17;;;12.93;;
71622;SDS011;59473;53.214;5.728;2024-01-25T11:46:26;43.45;;;11.40;;
71622;SDS011;59473;53.214;5.728;2024-01-25T11:48:51;44.15;;;9.10;;
71622;SDS011;59473;53.214;5.728;2024-01-25T11:51:16;33.00;;;7.07;;
71622;SDS011;59473;53.214;5.728;2024-01-25T11:53:42;30.70;;;6.87;;
71622;SDS011;59473;53.214;5.728;2024-01-25T11:56:14;32.33;;;6.53;;
71622;SDS011;59473;53.214;5.728;2024-01-25T11:58:41;45.03;;;6.55;;
71622;SDS011;59473;53.214;5.728;2024-01-25T12:01:08;30.80;;;6.87;;
71622;SDS011;59473;53.214;5.728;2024-01-25T12:03:34;38.45;;;6.72;;
71622;SDS011;59473;53.214;5.728;2024-01-25T12:06:01;32.67;;;7.03;;
71622;SDS011;59473;53.214;5.728;2024-01-25T12:08:27;29.05;;;6.43;;
71622;SDS011;59473;53.214;5.728;2024-01-25T12:11:01;33.07;;;6.50;;
71622;SDS011;59473;53.214;5.728;2024-01-25T12:13:27;29.13;;;6.32;;
71622;SDS011;59473;53.214;5.728;2024-01-25T12:15:52;27.43;;;6.20;;
71622;SDS011;59473;53.214;5.728;2024-01-25T12:18:20;37.90;;;6.73;;
71622;SDS011;59473;53.214;5.728;2024-01-25T12:20:46;33.80;;;7.00;;
71622;SDS011;59473;53.214;5.728;2024-01-25T12:23:11;32.95;;;7.15;;
71622;SDS011;59473;53.214;5.728;2024-01-25T12:25:38;34.50;;;6.03;;
71622;SDS011;59473;53.214;5.728;2024-01-25T12:28:04;28.00;;;6.40;;
71622;SDS011;59473;53.214;5.728;2024-01-25T12:30:29;30.02;;;6.45;;
71622;SDS011;59473;53.214;5.728;2024-01-25T12:32:54;35.20;;;7.43;;
71622;SDS011;59473;53.214;5.728;2024-01-25T12:35:20;34.17;;;6.30;;
71622;SDS011;59473;53.214;5.728;2024-01-25T12:37:45;28.00;;;6.47;;
71622;SDS011;59473;53.214;5.728;2024-01-25T12:40:10;31.53;;;7.00;;
71622;SDS011;59473;53.214;5.728;2024-01-25T12:42:35;39.67;;;8.47;;
71622;SDS011;59473;53.214;5.728;2024-01-25T12:45:01;36.83;;;10.17;;
71622;SDS011;59473;53.214;5.728;2024-01-25T12:47:26;46.43;;;12.17;;
71622;SDS011;59473;53.214;5.728;2024-01-25T12:49:51;58.63;;;15.47;;
71622;SDS011;59473;53.214;5.728;2024-01-25T12:52:17;40.80;;;9.07;;
71622;SDS011;59473;53.214;5.728;2024-01-25T12:54:42;50.00;;;11.53;;
71622;SDS011;59473;53.214;5.728;2024-01-25T12:57:08;38.72;;;9.82;;
71622;SDS011;59473;53.214;5.728;2024-01-25T12:59:33;41.27;;;10.20;;
71622;SDS011;59473;53.214;5.728;2024-01-25T13:01:59;38.73;;;10.00;;
71622;SDS011;59473;53.214;5.728;2024-01-25T13:04:24;41.57;;;9.73;;
71622;SDS011;59473;53.214;5.728;2024-01-25T13:06:51;35.67;;;7.80;;
71622;SDS011;59473;53.214;5.728;2024-01-25T13:09:17;46.60;;;11.00;;
71622;SDS011;59473;53.214;5.728;2024-01-25T13:11:42;36.43;;;9.10;;
71622;SDS011;59473;53.214;5.728;2024-01-25T13:14:07;29.97;;;8.23;;
71622;SDS011;59473;53.214;5.728;2024-01-25T13:16:32;36.10;;;8.53;;
71622;SDS011;59473;53.214;5.728;2024-01-25T13:18:58;39.15;;;9.45;;
71622;SDS011;59473;53.214;5.728;2024-01-25T13:21:23;41.30;;;11.10;;
71622;SDS011;59473;53.214;5.728;2024-01-25T13:23:48;32.65;;;7.85;;
71622;SDS011;59473;53.214;5.728;2024-01-25T13:26:13;45.80;;;9.77;;
71622;SDS011;59473;53.214;5.728;2024-01-25T13:28:39;40.30;;;7.78;;
71622;SDS011;59473;53.214;5.728;2024-01-25T13:31:04;33.95;;;8.13;;
71622;SDS011;59473;53.214;5.728;2024-01-25T13:33:29;33.47;;;8.10;;
71622;SDS011;59473;53.214;5.728;2024-01-25T13:35:54;32.57;;;7.70;;
71622;SDS011;59473;53.214;5.728;2024-01-25T13:38:19;28.55;;;7.15;;
71622;SDS011;59473;53.214;5.728;2024-01-25T13:40:45;32.40;;;8.05;;
71622;SDS011;59473;53.214;5.728;2024-01-25T13:43:10;34.45;;;7.45;;
71622;SDS011;59473;53.214;5.728;2024-01-25T13:45:36;30.40;;;8.95;;
71622;SDS011;59473;53.214;5.728;2024-01-25T13:48:01;31.57;;;7.97;;
71622;SDS011;59473;53.214;5.728;2024-01-25T13:50:26;32.43;;;7.07;;
71622;SDS011;59473;53.214;5.728;2024-01-25T13:52:51;32.47;;;7.20;;
71622;SDS011;59473;53.214;5.728;2024-01-25T13:55:17;30.03;;;6.93;;
71622;SDS011;59473;53.214;5.728;2024-01-25T13:57:42;26.57;;;7.57;;
71622;SDS011;59473;53.214;5.728;2024-01-25T14:00:07;25.73;;;6.33;;
71622;SDS011;59473;53.214;5.728;2024-01-25T14:02:33;28.67;;;5.57;;
71622;SDS011;59473;53.214;5.728;2024-01-25T14:04:58;34.65;;;6.63;;
71622;SDS011;59473;53.214;5.728;2024-01-25T14:07:23;23.67;;;5.33;;
71622;SDS011;59473;53.214;5.728;2024-01-25T14:09:49;25.60;;;5.80;;
71622;SDS011;59473;53.214;5.728;2024-01-25T14:12:14;28.37;;;5.20;;
71622;SDS011;59473;53.214;5.728;2024-01-25T14:14:39;26.53;;;5.30;;
71622;SDS011;59473;53.214;5.728;2024-01-25T14:17:04;31.10;;;6.10;;
71622;SDS011;59473;53.214;5.728;2024-01-25T14:19:30;26.07;;;5.63;;
71622;SDS011;59473;53.214;5.728;2024-01-25T14:21:55;29.37;;;6.60;;
71622;SDS011;59473;53.214;5.728;2024-01-25T14:24:20;27.30;;;5.73;;